Time;durP1;ratioP1;P1;durP2;ratioP2;P2;SDS_P1;SDS_P2;PMS_P1;PMS_P2;Temp;Humidity;BMP_temperature;BMP_pressure;BME280_temperature;BME280_humidity;BME280_pressure;Samples;Min_cycle;Max_cycle;Signal;HPM_P1;HPM_P2
2023/10/26 00:00:59;;;;;;;2.80;0.73;;;;;;;9.47;100.00;91451.28;2080403;28;20025;-84
2023/10/26 00:02:00;;;;;;;1.10;0.50;;;;;;;9.61;100.00;91454.50;2056367;28;20109;-84
2023/10/26 00:03:00;;;;;;;2.05;0.45;;;;;;;9.66;100.00;91445.88;2072617;28;20025;-84
2023/10/26 00:04:02;;;;;;;0.85;0.40;;;;;;;9.54;100.00;91450.22;2080901;28;20400;-85
2023/10/26 00:05:03;;;;;;;0.90;0.43;;;;;;;9.40;100.00;91448.94;2072664;28;20109;-83
2023/10/26 00:06:04;;;;;;;4.63;0.55;;;;;;;9.29;100.00;91449.41;2072711;28;20049;-83
2023/10/26 00:07:06;;;;;;;0.88;0.55;;;;;;;9.13;100.00;91447.09;2072627;28;20017;-85
2023/10/26 00:08:07;;;;;;;2.85;0.60;;;;;;;9.43;100.00;91442.69;2071711;28;20404;-83
2023/10/26 00:09:08;;;;;;;2.20;0.85;;;;;;;9.45;100.00;91443.00;2077522;28;20700;-82
2023/10/26 00:10:09;;;;;;;2.45;0.50;;;;;;;9.34;100.00;91443.47;2090062;28;20103;-84
2023/10/26 00:11:11;;;;;;;2.42;0.63;;;;;;;9.31;100.00;91448.97;2081952;28;20021;-82
2023/10/26 00:12:12;;;;;;;0.70;0.50;;;;;;;9.64;100.00;91443.66;2073511;28;20422;-82
2023/10/26 00:13:13;;;;;;;2.15;0.60;;;;;;;9.58;100.00;91442.81;2090685;28;20036;-83
2023/10/26 00:14:14;;;;;;;0.63;0.52;;;;;;;9.61;100.00;91446.50;2084680;28;20661;-83
2023/10/26 00:15:15;;;;;;;0.82;0.40;;;;;;;9.32;100.00;91439.78;2082316;28;20030;-84
2023/10/26 00:16:16;;;;;;;2.25;0.60;;;;;;;9.31;100.00;91438.31;2089850;28;20080;-82
2023/10/26 00:17:17;;;;;;;2.70;0.45;;;;;;;9.40;100.00;91434.88;2090160;28;20549;-82
2023/10/26 00:18:18;;;;;;;1.08;0.35;;;;;;;9.36;100.00;91445.69;2080136;28;20033;-83
2023/10/26 00:19:19;;;;;;;1.85;0.50;;;;;;;9.56;100.00;91437.91;2081795;28;20388;-82
2023/10/26 00:20:19;;;;;;;0.77;0.40;;;;;;;9.39;100.00;91441.38;2072891;28;20548;-84
2023/10/26 00:21:21;;;;;;;1.48;0.45;;;;;;;9.36;100.00;91445.69;2082389;28;20029;-82
2023/10/26 00:22:22;;;;;;;1.35;0.40;;;;;;;9.21;100.00;91429.56;2082015;28;20022;-82
2023/10/26 00:23:23;;;;;;;1.55;0.98;;;;;;;9.15;100.00;91438.63;2074239;28;20022;-82
2023/10/26 00:24:24;;;;;;;2.15;0.60;;;;;;;9.28;100.00;91445.25;2090702;28;20169;-82
2023/10/26 00:25:25;;;;;;;4.43;0.80;;;;;;;9.56;100.00;91443.25;2090264;28;20021;-84
2023/10/26 00:26:26;;;;;;;1.77;0.55;;;;;;;9.48;100.00;91436.78;2074279;28;20121;-84
2023/10/26 00:27:27;;;;;;;2.42;0.60;;;;;;;9.36;100.00;91440.34;2082577;28;20036;-83
2023/10/26 00:28:28;;;;;;;4.50;0.85;;;;;;;9.44;100.00;91430.84;2090685;28;20029;-84
2023/10/26 00:29:29;;;;;;;3.65;0.52;;;;;;;9.44;100.00;91444.19;2090631;28;20051;-83
2023/10/26 00:30:30;;;;;;;2.40;0.40;;;;;;;9.54;100.00;91432.31;2090272;28;20116;-83
2023/10/26 00:31:31;;;;;;;4.43;0.60;;;;;;;9.53;100.00;91430.81;2081503;28;20021;-82
2023/10/26 00:32:32;;;;;;;0.70;0.43;;;;;;;9.51;100.00;91429.78;2088975;28;20029;-83
2023/10/26 00:33:33;;;;;;;1.58;0.50;;;;;;;9.38;100.00;91427.31;2082155;28;20033;-82
2023/10/26 00:34:35;;;;;;;2.35;0.70;;;;;;;9.29;100.00;91425.41;2090375;28;20036;-84
2023/10/26 00:35:36;;;;;;;1.20;0.50;;;;;;;9.26;100.00;91422.88;2082136;28;20052;-83
2023/10/26 00:36:37;;;;;;;1.90;0.60;;;;;;;9.09;100.00;91430.50;2082158;28;20025;-86
2023/10/26 00:37:38;;;;;;;1.40;0.43;;;;;;;8.96;100.00;91428.00;2090110;28;20044;-82
2023/10/26 00:38:39;;;;;;;1.25;0.50;;;;;;;9.10;100.00;91428.56;2089888;28;20116;-81
2023/10/26 00:39:40;;;;;;;1.77;0.52;;;;;;;9.05;100.00;91427.97;2090332;28;20021;-82
2023/10/26 00:40:41;;;;;;;2.50;0.93;;;;;;;9.03;100.00;91425.00;2090459;28;20056;-82
2023/10/26 00:41:42;;;;;;;1.08;0.43;;;;;;;9.20;100.00;91430.03;2081192;28;20071;-82
2023/10/26 00:42:43;;;;;;;3.92;1.02;;;;;;;9.26;100.00;91430.88;2088494;28;20116;-83
2023/10/26 00:43:43;;;;;;;0.90;0.60;;;;;;;9.18;100.00;91422.47;2080760;28;20063;-85
2023/10/26 00:44:46;;;;;;;1.88;0.47;;;;;;;9.10;100.00;91421.31;2073982;28;20469;-83
2023/10/26 00:45:50;;;;;;;2.03;0.50;;;;;;;9.02;100.00;91433.47;2082262;28;20065;-82
2023/10/26 00:46:53;;;;;;;2.67;0.40;;;;;;;8.88;100.00;91428.75;2090598;28;20029;-83
2023/10/26 00:47:54;;;;;;;2.45;0.45;;;;;;;9.18;100.00;91422.47;2089904;28;20415;-83
2023/10/26 00:48:55;;;;;;;3.20;0.50;;;;;;;9.23;100.00;91434.47;2081877;28;20033;-83
2023/10/26 00:49:56;;;;;;;1.05;0.60;;;;;;;9.16;100.00;91426.78;2082047;28;20029;-84
2023/10/26 00:50:57;;;;;;;6.03;0.70;;;;;;;9.07;100.00;91432.84;2089907;28;20033;-83
2023/10/26 00:52:01;;;;;;;2.97;0.52;;;;;;;8.99;100.00;91431.69;2090042;28;20021;-83
2023/10/26 00:53:02;;;;;;;4.28;0.73;;;;;;;8.81;100.00;91430.50;2082252;28;20075;-82
2023/10/26 00:54:03;;;;;;;2.17;0.60;;;;;;;8.90;100.00;91429.75;2081975;28;20025;-84
2023/10/26 00:55:06;;;;;;;3.95;0.70;;;;;;;8.83;100.00;91430.81;2090134;28;20103;-82
2023/10/26 00:56:10;;;;;;;3.13;0.80;;;;;;;8.71;100.00;91431.72;2088701;28;20060;-82
2023/10/26 00:57:23;;;;;;;3.50;0.98;;;;;;;8.86;100.00;91434.50;2082221;28;20028;-83
2023/10/26 00:58:26;;;;;;;1.60;0.57;;;;;;;9.02;100.00;91428.88;2075446;28;20026;-83
2023/10/26 00:59:28;;;;;;;3.80;0.52;;;;;;;9.00;100.00;91425.16;2074144;28;20499;-84
2023/10/26 01:00:30;;;;;;;1.25;0.50;;;;;;;8.86;100.00;91421.19;2090395;28;20033;-84
2023/10/26 01:01:32;;;;;;;6.75;0.65;;;;;;;8.89;100.00;91433.63;2076345;28;20022;-82
2023/10/26 01:02:35;;;;;;;2.88;0.60;;;;;;;8.90;100.00;91432.44;2065812;28;20026;-82
2023/10/26 01:03:39;;;;;;;1.10;0.70;;;;;;;8.88;100.00;91429.47;2082314;28;20036;-83
2023/10/26 01:04:40;;;;;;;1.85;0.57;;;;;;;8.95;100.00;91431.09;2073716;28;20105;-84
2023/10/26 01:05:41;;;;;;;0.40;0.40;;;;;;;8.88;100.00;91426.09;2057662;28;20030;-85
2023/10/26 01:06:43;;;;;;;3.63;0.80;;;;;;;8.87;100.00;91420.03;2065707;28;20030;-83
2023/10/26 01:07:44;;;;;;;1.35;0.60;;;;;;;8.93;100.00;91428.88;2065865;28;20022;-82
2023/10/26 01:08:45;;;;;;;1.65;0.52;;;;;;;9.16;100.00;91426.78;2072417;28;20045;-82
2023/10/26 01:09:47;;;;;;;1.10;0.40;;;;;;;9.14;100.00;91418.50;2065555;28;20493;-84
2023/10/26 01:10:48;;;;;;;1.20;0.60;;;;;;;9.00;100.00;91431.25;2074132;28;20494;-82
2023/10/26 01:11:49;;;;;;;2.47;0.70;;;;;;;9.01;100.00;91426.66;2092532;28;20078;-84
2023/10/26 01:12:50;;;;;;;1.60;0.63;;;;;;;8.94;100.00;91426.94;2106386;28;20077;-82
2023/10/26 01:13:51;;;;;;;1.80;0.60;;;;;;;8.76;100.00;91430.38;2088858;28;20451;-82
2023/10/26 01:14:53;;;;;;;3.45;0.73;;;;;;;8.75;100.00;91431.56;2073554;28;20147;-83
2023/10/26 01:15:54;;;;;;;1.65;0.60;;;;;;;8.68;100.00;91429.19;2073871;28;20337;-84
2023/10/26 01:16:55;;;;;;;2.65;0.57;;;;;;;8.66;100.00;91428.91;2082004;28;20025;-84
2023/10/26 01:17:56;;;;;;;0.88;0.60;;;;;;;8.59;100.00;91435.25;2085755;28;20116;-82
2023/10/26 01:19:04;;;;;;;1.25;0.77;;;;;;;8.76;100.00;91435.72;2089945;28;20043;-81
2023/10/26 01:20:06;;;;;;;1.65;0.68;;;;;;;8.75;100.00;91432.31;2088791;28;20033;-83
2023/10/26 01:21:09;;;;;;;4.05;0.80;;;;;;;8.69;100.00;91434.09;2078255;28;20092;-81
2023/10/26 01:22:11;;;;;;;2.70;0.60;;;;;;;8.66;100.00;91416.31;2081928;28;20072;-84
2023/10/26 01:23:11;;;;;;;1.00;0.60;;;;;;;8.51;100.00;91420.75;2081603;28;20029;-82
2023/10/26 01:24:12;;;;;;;4.75;0.77;;;;;;;8.48;100.00;91419.72;2065614;28;20046;-82
2023/10/26 01:25:14;;;;;;;2.47;0.57;;;;;;;8.37;100.00;91422.09;2073653;28;20022;-83
2023/10/26 01:26:15;;;;;;;1.88;0.93;;;;;;;8.41;100.00;91419.28;2081672;28;20034;-83
2023/10/26 01:27:16;;;;;;;1.02;0.38;;;;;;;8.46;100.00;91416.75;2081630;28;20021;-84
2023/10/26 01:28:20;;;;;;;2.17;0.68;;;;;;;8.49;100.00;91413.22;2089844;28;20052;-84
2023/10/26 01:29:21;;;;;;;2.42;0.95;;;;;;;8.32;100.00;91425.31;2073316;28;20022;-83
2023/10/26 01:30:22;;;;;;;2.15;0.68;;;;;;;8.48;100.00;91419.72;2073599;28;20034;-83
2023/10/26 01:31:23;;;;;;;2.10;0.55;;;;;;;8.55;100.00;91424.00;2081011;28;20022;-81
2023/10/26 01:32:26;;;;;;;3.40;0.70;;;;;;;8.44;100.00;91411.16;2087473;28;20063;-84
2023/10/26 01:33:27;;;;;;;3.90;0.80;;;;;;;8.43;100.00;91414.25;2089669;28;20024;-83
2023/10/26 01:34:30;;;;;;;1.15;0.60;;;;;;;8.49;100.00;91421.22;2089915;28;20028;-84
2023/10/26 01:35:40;;;;;;;1.05;0.65;;;;;;;8.48;100.00;91408.34;2089980;28;20044;-82
2023/10/26 01:36:41;;;;;;;;;;;;;;;8.37;100.00;91413.34;2088407;28;20024;-83
2023/10/26 01:37:42;;;;;;;2.28;0.50;;;;;;;8.29;100.00;91410.22;2073662;28;20000;-84
2023/10/26 01:38:43;;;;;;;1.45;0.60;;;;;;;8.36;100.00;91407.28;2081771;28;20025;-84
2023/10/26 01:39:44;;;;;;;6.63;0.70;;;;;;;8.39;100.00;91409.09;2089951;28;20025;-83
2023/10/26 01:40:45;;;;;;;1.27;0.50;;;;;;;8.45;100.00;91409.97;2081411;28;20021;-83
2023/10/26 01:41:47;;;;;;;1.23;0.60;;;;;;;8.42;100.00;91410.84;2080558;28;20527;-84
2023/10/26 01:42:47;;;;;;;1.42;0.60;;;;;;;8.24;100.00;91405.47;2081580;28;20380;-83
2023/10/26 01:43:48;;;;;;;2.67;0.73;;;;;;;8.30;100.00;91417.03;2087045;28;20025;-84
2023/10/26 01:44:50;;;;;;;4.65;0.68;;;;;;;8.17;100.00;91403.13;2079024;28;20025;-82
2023/10/26 01:45:51;;;;;;;1.10;0.70;;;;;;;8.26;100.00;91405.78;2081516;28;20420;-83
2023/10/26 01:46:52;;;;;;;1.85;0.60;;;;;;;8.37;100.00;91408.78;2092628;28;20068;-83
2023/10/26 01:47:54;;;;;;;1.75;0.70;;;;;;;8.35;100.00;91405.78;2088398;28;20028;-83
2023/10/26 01:49:00;;;;;;;1.98;0.52;;;;;;;8.39;100.00;91401.09;2081721;28;20492;-83
2023/10/26 01:50:02;;;;;;;2.78;0.57;;;;;;;8.42;100.00;91402.84;2081930;28;20028;-82
2023/10/26 01:51:04;;;;;;;2.03;0.50;;;;;;;8.37;100.00;91392.81;2080924;28;20479;-82
2023/10/26 01:52:05;;;;;;;1.25;0.60;;;;;;;8.30;100.00;91398.41;2089416;28;20037;-84
2023/10/26 01:53:06;;;;;;;0.57;0.43;;;;;;;8.26;100.00;91393.22;2081149;28;20025;-82
2023/10/26 01:54:07;;;;;;;2.50;0.60;;;;;;;8.34;100.00;91393.69;2089698;28;20498;-83
2023/10/26 01:55:08;;;;;;;2.58;0.70;;;;;;;8.26;100.00;91400.47;2089611;28;20029;-81
2023/10/26 01:56:09;;;;;;;1.02;0.75;;;;;;;8.22;100.00;91397.94;2072133;28;20026;-82
2023/10/26 01:57:10;;;;;;;1.27;0.70;;;;;;;7.98;100.00;91397.75;2073216;28;20053;-82
2023/10/26 01:58:11;;;;;;;2.25;0.70;;;;;;;7.94;100.00;91396.41;2073144;28;20037;-83
2023/10/26 01:59:12;;;;;;;1.50;0.50;;;;;;;8.01;100.00;91404.13;2081437;28;20021;-83
2023/10/26 02:00:13;;;;;;;2.10;0.80;;;;;;;7.91;100.00;91397.31;2089512;28;20044;-83
2023/10/26 02:01:15;;;;;;;1.10;0.60;;;;;;;7.97;100.00;91401.59;2081021;28;20100;-82
2023/10/26 02:02:16;;;;;;;2.20;0.60;;;;;;;8.08;100.00;91395.88;2081405;28;20025;-83
2023/10/26 02:03:18;;;;;;;2.63;0.88;;;;;;;7.94;100.00;91410.44;2081289;28;20040;-83
2023/10/26 02:04:19;;;;;;;1.02;0.60;;;;;;;7.81;100.00;91402.63;2081504;28;20044;-85
2023/10/26 02:05:20;;;;;;;0.52;0.50;;;;;;;7.96;100.00;91402.78;2065242;28;20077;-83
2023/10/26 02:06:21;;;;;;;5.95;1.17;;;;;;;7.89;100.00;91395.06;2065233;28;20045;-81
2023/10/26 02:07:23;;;;;;;1.38;0.60;;;;;;;8.00;100.00;91395.41;2065496;28;20030;-83
2023/10/26 02:08:24;;;;;;;2.05;0.77;;;;;;;8.14;100.00;91404.75;2071740;28;20026;-83
2023/10/26 02:09:25;;;;;;;0.70;0.50;;;;;;;8.11;100.00;91402.94;2081368;28;20025;-82
2023/10/26 02:10:29;;;;;;;1.85;0.50;;;;;;;8.08;100.00;91399.25;2089537;28;20040;-83
2023/10/26 02:11:31;;;;;;;0.77;0.50;;;;;;;8.00;100.00;91397.34;2089029;28;20021;-83
2023/10/26 02:12:32;;;;;;;0.60;0.50;;;;;;;7.88;100.00;91388.28;2080771;28;20017;-84
2023/10/26 02:13:35;;;;;;;1.88;0.80;;;;;;;7.79;100.00;91398.91;2081353;28;20061;-83
2023/10/26 02:14:36;;;;;;;2.38;0.77;;;;;;;7.68;100.00;91395.91;2081403;28;20495;-84
2023/10/26 02:15:37;;;;;;;2.33;0.50;;;;;;;7.66;100.00;91398.28;2065250;28;20034;-82
2023/10/26 02:16:38;;;;;;;1.52;0.55;;;;;;;7.67;100.00;91402.41;2081185;28;20028;-84
2023/10/26 02:17:39;;;;;;;1.40;0.75;;;;;;;7.55;100.00;91396.78;2097342;28;20051;-81
2023/10/26 02:18:43;;;;;;;1.33;0.70;;;;;;;7.57;100.00;91394.41;2081140;28;20099;-83
2023/10/26 02:19:44;;;;;;;1.52;0.70;;;;;;;7.61;100.00;91390.88;2081922;28;20464;-82
2023/10/26 02:20:45;;;;;;;2.13;0.70;;;;;;;7.65;100.00;91394.16;2080068;28;20022;-83
2023/10/26 02:21:46;;;;;;;2.10;0.60;;;;;;;7.63;100.00;91389.25;2075963;28;20014;-84
2023/10/26 02:22:47;;;;;;;3.50;0.47;;;;;;;7.43;100.00;91388.91;2073140;28;20504;-82
2023/10/26 02:23:48;;;;;;;1.80;0.60;;;;;;;7.39;100.00;91394.34;2081462;28;20052;-84
2023/10/26 02:24:49;;;;;;;1.58;0.63;;;;;;;7.42;100.00;91387.41;2081373;28;20030;-81
2023/10/26 02:25:50;;;;;;;1.85;0.70;;;;;;;7.46;100.00;91390.66;2089584;28;20483;-86
2023/10/26 02:26:50;;;;;;;0.55;0.52;;;;;;;7.24;100.00;91394.16;2081163;28;20045;-82
2023/10/26 02:27:51;;;;;;;1.42;0.57;;;;;;;7.21;100.00;91391.63;2073168;28;20491;-84
2023/10/26 02:28:53;;;;;;;1.20;0.60;;;;;;;7.22;100.00;91387.78;2072057;28;20072;-81
2023/10/26 02:29:53;;;;;;;1.90;0.77;;;;;;;7.25;100.00;91386.91;2073169;28;20038;-88
2023/10/26 02:30:54;;;;;;;1.52;0.80;;;;;;;7.24;100.00;91382.75;2089476;28;20147;-83
2023/10/26 02:31:57;;;;;;;0.90;0.77;;;;;;;7.20;100.00;91387.47;2089398;28;20514;-82
2023/10/26 02:32:58;;;;;;;1.08;0.57;;;;;;;7.18;100.00;91387.16;2071913;28;20025;-82
2023/10/26 02:33:59;;;;;;;2.45;0.75;;;;;;;7.16;100.00;91390.28;2073270;28;20058;-82
2023/10/26 02:35:00;;;;;;;6.25;0.90;;;;;;;7.07;100.00;91382.25;2073195;28;20041;-83
2023/10/26 02:36:04;;;;;;;1.92;0.80;;;;;;;7.09;100.00;91381.81;2089337;28;20467;-83
2023/10/26 02:37:05;;;;;;;2.85;0.63;;;;;;;7.17;100.00;91380.38;2089432;28;20040;-83
2023/10/26 02:38:06;;;;;;;0.98;0.65;;;;;;;7.00;100.00;91372.63;2089495;28;20025;-82
2023/10/26 02:39:07;;;;;;;1.15;0.80;;;;;;;7.02;100.00;91377.50;2081588;28;20025;-84
2023/10/26 02:40:11;;;;;;;1.05;0.63;;;;;;;6.99;100.00;91370.41;2081214;28;20025;-82
2023/10/26 02:41:13;;;;;;;1.05;0.55;;;;;;;6.94;100.00;91369.06;2081614;28;20100;-82
2023/10/26 02:42:14;;;;;;;1.73;0.82;;;;;;;6.99;100.00;91367.75;2091568;28;20365;-84
2023/10/26 02:43:15;;;;;;;1.67;0.63;;;;;;;7.28;100.00;91372.72;2081339;28;20022;-83
2023/10/26 02:44:16;;;;;;;1.50;0.63;;;;;;;7.15;100.00;91366.78;2079969;28;20033;-84
2023/10/26 02:45:17;;;;;;;1.85;0.90;;;;;;;7.17;100.00;91367.84;2081228;28;20029;-85
2023/10/26 02:46:18;;;;;;;2.30;0.80;;;;;;;7.00;100.00;91359.34;2073028;28;20057;-83
2023/10/26 02:47:19;;;;;;;4.05;0.88;;;;;;;6.76;100.00;91359.09;2077213;28;20041;-82
2023/10/26 02:48:20;;;;;;;2.15;0.70;;;;;;;6.77;100.00;91355.25;2080630;28;20030;-82
2023/10/26 02:49:21;;;;;;;2.60;0.70;;;;;;;6.83;100.00;91360.72;2081032;28;20053;-82
2023/10/26 02:50:22;;;;;;;2.60;0.85;;;;;;;6.80;100.00;91348.31;2089188;28;20029;-80
2023/10/26 02:51:25;;;;;;;1.55;0.70;;;;;;;6.77;100.00;91349.94;2080577;28;20068;-83
2023/10/26 02:52:26;;;;;;;2.28;0.77;;;;;;;6.75;100.00;91346.22;2089669;28;20028;-81
2023/10/26 02:53:27;;;;;;;2.55;0.88;;;;;;;6.73;100.00;91351.97;2089316;28;20032;-84
2023/10/26 02:54:28;;;;;;;1.25;0.80;;;;;;;6.67;100.00;91351.06;2081244;28;20032;-82
2023/10/26 02:55:29;;;;;;;1.10;0.70;;;;;;;6.75;100.00;91346.22;2073080;28;20060;-83
2023/10/26 02:56:30;;;;;;;1.42;0.70;;;;;;;6.85;100.00;91349.66;2080035;28;20096;-82
2023/10/26 02:57:31;;;;;;;3.53;0.80;;;;;;;6.91;100.00;91353.25;2081244;28;20599;-80
2023/10/26 02:58:32;;;;;;;1.05;0.88;;;;;;;6.82;100.00;91353.94;2081114;28;20636;-82
2023/10/26 02:59:32;;;;;;;0.90;0.82;;;;;;;6.91;100.00;91353.97;2089451;28;20717;-83
2023/10/26 03:00:33;;;;;;;1.98;1.13;;;;;;;7.01;100.00;91357.41;2089365;28;20017;-82
2023/10/26 03:01:35;;;;;;;1.65;0.95;;;;;;;6.95;100.00;91354.59;2080537;28;20013;-84
2023/10/26 03:02:36;;;;;;;3.05;0.90;;;;;;;6.83;100.00;91358.06;2068715;28;20017;-83
2023/10/26 03:03:36;;;;;;;4.93;1.45;;;;;;;6.92;100.00;91368.75;2081303;28;20025;-82
2023/10/26 03:04:38;;;;;;;1.35;1.10;;;;;;;6.86;100.00;91359.13;2089420;28;20032;-82
2023/10/26 03:05:39;;;;;;;1.55;1.10;;;;;;;6.88;100.00;91365.47;2089446;28;20027;-83
2023/10/26 03:06:40;;;;;;;1.88;0.95;;;;;;;6.93;100.00;91353.53;2089297;28;20032;-82
2023/10/26 03:07:45;;;;;;;1.63;0.90;;;;;;;7.02;100.00;91361.56;2089253;28;20021;-83
2023/10/26 03:08:46;;;;;;;1.00;0.65;;;;;;;7.04;100.00;91367.19;2080535;28;20051;-83
2023/10/26 03:09:48;;;;;;;3.20;1.17;;;;;;;7.04;100.00;91367.91;2081112;28;20033;-82
2023/10/26 03:10:49;;;;;;;0.60;0.60;;;;;;;7.16;100.00;91363.69;2081227;28;20024;-82
2023/10/26 03:11:52;;;;;;;0.70;0.60;;;;;;;7.23;100.00;91366.06;2087946;28;20400;-84
2023/10/26 03:12:53;;;;;;;1.38;0.77;;;;;;;7.34;100.00;91362.28;2081285;28;20598;-83
2023/10/26 03:13:54;;;;;;;3.15;0.63;;;;;;;7.36;100.00;91368.63;2072691;28;20029;-83
2023/10/26 03:14:54;;;;;;;1.63;0.80;;;;;;;7.34;100.00;91365.69;2072913;28;20026;-84
2023/10/26 03:15:55;;;;;;;0.90;0.60;;;;;;;7.29;100.00;91359.03;2082658;28;20029;-84
2023/10/26 03:16:57;;;;;;;2.88;0.75;;;;;;;7.28;100.00;91362.09;2089594;28;20029;-82
2023/10/26 03:17:58;;;;;;;0.95;0.85;;;;;;;7.32;100.00;91366.09;2089011;28;20035;-83
2023/10/26 03:18:59;;;;;;;1.08;0.70;;;;;;;7.45;100.00;91355.38;2089143;28;20021;-84
2023/10/26 03:20:00;;;;;;;1.10;0.60;;;;;;;7.55;100.00;91358.78;2080604;28;20112;-83
2023/10/26 03:21:00;;;;;;;1.10;0.70;;;;;;;7.69;100.00;91355.59;2079612;28;20404;-83
2023/10/26 03:22:01;;;;;;;3.47;0.80;;;;;;;7.72;100.00;91357.34;2081601;28;20476;-81
2023/10/26 03:23:03;;;;;;;1.38;0.85;;;;;;;7.80;100.00;91360.47;2089030;28;20040;-82
2023/10/26 03:24:04;;;;;;;6.13;0.98;;;;;;;7.79;100.00;91369.66;2080971;28;20044;-83
2023/10/26 03:25:06;;;;;;;1.58;1.13;;;;;;;7.83;100.00;91373.66;2072881;28;20033;-83
2023/10/26 03:26:11;;;;;;;1.83;1.02;;;;;;;7.96;100.00;91375.44;2081073;28;20399;-83
2023/10/26 03:27:12;;;;;;;0.80;0.80;;;;;;;8.05;100.00;91372.78;2080946;28;20064;-84
2023/10/26 03:28:13;;;;;;;2.45;0.90;;;;;;;8.04;100.00;91371.31;2080975;28;20421;-82
2023/10/26 03:29:14;;;;;;;4.47;0.90;;;;;;;8.14;100.00;91364.09;2089149;28;20079;-83
2023/10/26 03:30:17;;;;;;;2.45;1.08;;;;;;;8.20;100.00;91365.69;2089146;28;20056;-84
2023/10/26 03:31:18;;;;;;;1.95;0.82;;;;;;;8.16;100.00;91362.44;2080714;28;20029;-83
2023/10/26 03:32:20;;;;;;;1.92;1.50;;;;;;;8.16;100.00;91361.72;2072625;28;20029;-84
2023/10/26 03:33:21;;;;;;;1.50;1.00;;;;;;;8.14;100.00;91358.75;2080261;28;20070;-83
2023/10/26 03:34:22;;;;;;;2.60;0.98;;;;;;;8.25;100.00;91367.78;2089017;28;20090;-87
2023/10/26 03:35:23;;;;;;;3.17;1.10;;;;;;;8.32;100.00;91375.47;2081071;28;20029;-86
2023/10/26 03:36:24;;;;;;;1.17;0.80;;;;;;;8.36;100.00;91372.66;2080929;28;20376;-84
2023/10/26 03:37:25;;;;;;;2.35;1.00;;;;;;;8.35;100.00;91379.19;2072811;28;20033;-85
2023/10/26 03:38:27;;;;;;;1.23;0.70;;;;;;;8.44;100.00;91381.13;2081200;28;20029;-85
2023/10/26 03:39:29;;;;;;;2.28;0.88;;;;;;;8.43;100.00;91377.72;2089207;28;20677;-83
2023/10/26 03:40:30;;;;;;;2.05;1.02;;;;;;;8.49;100.00;91372.53;2089031;28;20021;-82
2023/10/26 03:41:31;;;;;;;2.28;0.93;;;;;;;8.40;100.00;91369.88;2088834;28;20021;-85
2023/10/26 03:42:32;;;;;;;1.40;0.90;;;;;;;8.35;100.00;91376.50;2093265;28;20048;-82
2023/10/26 03:43:33;;;;;;;3.95;1.00;;;;;;;8.26;100.00;91373.84;2072672;28;20465;-83
2023/10/26 03:44:34;;;;;;;3.28;1.08;;;;;;;8.31;100.00;91375.91;2063976;28;20033;-85
2023/10/26 03:45:35;;;;;;;1.15;0.90;;;;;;;8.33;100.00;91366.28;2071254;28;20465;-87
2023/10/26 03:46:36;;;;;;;1.50;0.88;;;;;;;8.27;100.00;91368.06;2082410;28;20025;-83
2023/10/26 03:47:38;;;;;;;4.90;1.08;;;;;;;8.23;100.00;91372.06;2090852;28;20028;-82
2023/10/26 03:48:39;;;;;;;1.88;1.20;;;;;;;8.25;100.00;91370.47;2087350;28;20021;-85
2023/10/26 03:49:40;;;;;;;4.07;1.10;;;;;;;8.38;100.00;91366.91;2082602;28;20503;-82
2023/10/26 03:50:43;;;;;;;2.22;0.90;;;;;;;8.34;100.00;91372.38;2090671;28;20028;-84
2023/10/26 03:51:46;;;;;;;2.85;1.00;;;;;;;8.40;100.00;91361.91;2091047;28;20035;-84
2023/10/26 03:52:47;;;;;;;3.10;1.15;;;;;;;8.21;100.00;91359.22;2090737;28;20029;-85
2023/10/26 03:53:48;;;;;;;2.55;1.02;;;;;;;8.31;100.00;91365.28;2090600;28;20032;-84
2023/10/26 03:54:49;;;;;;;2.22;0.88;;;;;;;8.26;100.00;91366.59;2099563;28;20035;-85
2023/10/26 03:55:50;;;;;;;1.98;0.82;;;;;;;8.33;100.00;91371.63;2090648;28;20487;-83
2023/10/26 03:56:51;;;;;;;2.25;1.00;;;;;;;8.34;100.00;91364.41;2073313;28;20041;-82
2023/10/26 03:57:52;;;;;;;2.47;1.08;;;;;;;8.41;100.00;91364.09;2074250;28;20026;-84
2023/10/26 03:58:53;;;;;;;2.65;1.27;;;;;;;8.29;100.00;91360.38;2066137;28;20033;-84
2023/10/26 03:59:54;;;;;;;3.38;1.17;;;;;;;8.28;100.00;91361.56;2082703;28;20037;-83
2023/10/26 04:00:57;;;;;;;2.63;1.02;;;;;;;8.40;100.00;91364.56;2092410;28;20124;-84
2023/10/26 04:01:58;;;;;;;3.05;1.02;;;;;;;8.50;100.00;91366.75;2090914;28;20463;-82
2023/10/26 04:02:59;;;;;;;5.63;1.55;;;;;;;8.49;100.00;91370.63;2078142;28;20045;-83
2023/10/26 04:04:01;;;;;;;2.33;1.77;;;;;;;8.48;100.00;91360.41;2074266;28;20044;-82
2023/10/26 04:05:04;;;;;;;2.72;1.92;;;;;;;8.40;100.00;91359.97;2072301;28;20101;-84
2023/10/26 04:06:05;;;;;;;4.30;3.50;;;;;;;8.36;100.00;91363.94;2074808;28;20036;-82
2023/10/26 04:07:07;;;;;;;2.60;2.17;;;;;;;8.41;100.00;91364.09;2082285;28;20025;-82
2023/10/26 04:08:09;;;;;;;9.15;3.00;;;;;;;8.48;100.00;91366.47;2082250;28;20123;-83
2023/10/26 04:09:10;;;;;;;2.85;1.70;;;;;;;8.62;100.00;91370.47;2081238;28;20026;-83
2023/10/26 04:10:11;;;;;;;2.67;1.38;;;;;;;8.41;100.00;91364.09;2082300;28;20037;-82
2023/10/26 04:11:18;;;;;;;1.90;1.25;;;;;;;8.46;100.00;91362.78;2081921;28;20429;-83
2023/10/26 04:12:19;;;;;;;4.93;1.60;;;;;;;8.57;100.00;91357.75;2089543;28;20055;-84
2023/10/26 04:13:20;;;;;;;2.35;1.40;;;;;;;8.64;100.00;91356.69;2089643;28;20371;-80
2023/10/26 04:14:21;;;;;;;4.25;1.83;;;;;;;8.52;100.00;91359.09;2079250;28;20463;-84
2023/10/26 04:15:22;;;;;;;1.75;1.35;;;;;;;8.53;100.00;91346.50;2074218;28;20423;-82
2023/10/26 04:16:23;;;;;;;2.58;1.88;;;;;;;8.61;100.00;91353.00;2073011;28;20051;-83
2023/10/26 04:17:24;;;;;;;2.90;1.55;;;;;;;8.72;100.00;91349.88;2065442;28;20034;-82
2023/10/26 04:18:25;;;;;;;4.07;1.92;;;;;;;8.74;100.00;91345.59;2073347;28;20044;-86
2023/10/26 04:19:26;;;;;;;3.30;1.90;;;;;;;8.90;100.00;91346.44;2089881;28;20032;-81
2023/10/26 04:20:28;;;;;;;4.43;1.73;;;;;;;8.89;100.00;91351.03;2081667;28;20021;-82
2023/10/26 04:21:29;;;;;;;3.47;1.85;;;;;;;8.84;100.00;91346.31;2081131;28;20025;-85
2023/10/26 04:22:31;;;;;;;2.78;1.67;;;;;;;8.92;100.00;91342.16;2090087;28;20463;-82
2023/10/26 04:23:32;;;;;;;5.15;2.00;;;;;;;8.88;100.00;91349.56;2090496;28;20564;-85
2023/10/26 04:24:33;;;;;;;1.98;1.45;;;;;;;8.85;100.00;91342.44;2098341;28;20051;-85
2023/10/26 04:25:34;;;;;;;3.20;1.60;;;;;;;8.71;100.00;91346.47;2082092;28;20024;-81
2023/10/26 04:26:35;;;;;;;2.88;2.00;;;;;;;8.87;100.00;91342.75;2074169;28;20032;-83
2023/10/26 04:27:36;;;;;;;2.33;1.30;;;;;;;8.76;100.00;91348.53;2074170;28;20029;-86
2023/10/26 04:28:37;;;;;;;6.00;1.50;;;;;;;8.78;100.00;91345.41;2073841;28;20029;-82
2023/10/26 04:29:38;;;;;;;2.33;1.70;;;;;;;8.89;100.00;91340.38;2082191;28;20033;-85
2023/10/26 04:30:39;;;;;;;3.00;1.88;;;;;;;8.88;100.00;91343.50;2090354;28;20017;-82
2023/10/26 04:31:39;;;;;;;4.22;1.85;;;;;;;8.86;100.00;91340.53;2095280;28;20044;-85
2023/10/26 04:32:42;;;;;;;3.20;2.00;;;;;;;8.87;100.00;91340.09;2081813;28;20026;-84
2023/10/26 04:33:43;;;;;;;3.17;1.60;;;;;;;8.80;100.00;91341.13;2090514;28;20043;-83
2023/10/26 04:34:44;;;;;;;4.63;2.75;;;;;;;8.95;100.00;91341.22;2043357;28;20487;-82
2023/10/26 04:35:46;;;;;;;3.70;2.20;;;;;;;8.94;100.00;91344.34;2059289;28;20028;-84
2023/10/26 04:36:47;;;;;;;5.20;2.10;;;;;;;8.88;100.00;91333.56;2000403;28;28652;-81
2023/10/26 04:37:48;;;;;;;5.85;2.55;;;;;;;8.92;100.00;91333.41;1999758;28;20079;-82
2023/10/26 04:38:50;;;;;;;7.05;1.80;;;;;;;8.83;100.00;91334.91;2050433;28;20036;-83
2023/10/26 04:39:51;;;;;;;11.27;2.22;;;;;;;8.85;100.00;91339.78;2045733;28;20048;-83
2023/10/26 04:40:52;;;;;;;3.00;1.80;;;;;;;8.91;100.00;91335.34;2072539;28;20112;-82
2023/10/26 04:41:53;;;;;;;2.97;1.88;;;;;;;8.90;100.00;91343.78;2001501;28;21503;-84
2023/10/26 04:42:54;;;;;;;2.78;1.50;;;;;;;8.95;100.00;91341.22;2013365;28;20051;-83
2023/10/26 04:43:55;;;;;;;2.63;1.67;;;;;;;8.95;100.00;91333.25;2002545;28;20050;-82
2023/10/26 04:44:56;;;;;;;2.80;1.80;;;;;;;8.95;100.00;91341.22;2012661;28;20048;-80
2023/10/26 04:45:57;;;;;;;3.05;1.67;;;;;;;8.98;100.00;91336.94;2025616;28;23187;-82
2023/10/26 04:46:58;;;;;;;2.15;1.75;;;;;;;8.98;100.00;91334.28;2047795;28;20059;-84
2023/10/26 04:47:59;;;;;;;4.22;1.65;;;;;;;8.87;100.00;91339.31;2042548;28;20160;-82
2023/10/26 04:49:00;;;;;;;3.42;1.55;;;;;;;8.80;100.00;91338.47;2059612;28;20053;-82
2023/10/26 04:50:01;;;;;;;3.60;1.63;;;;;;;9.00;100.00;91334.56;2074119;28;20405;-81